createdAt,value
2022-08-09T00:00:06.522Z,14.70
2022-08-09T00:02:48.958Z,14.60
2022-08-09T00:06:18.957Z,14.50
2022-08-09T00:08:04.707Z,14.40
2022-08-09T00:10:37.739Z,14.20
2022-08-09T00:13:06.702Z,14.00
2022-08-09T00:15:59.158Z,14.00
2022-08-09T00:18:30.203Z,14.00
2022-08-09T00:20:58.270Z,14.10
2022-08-09T00:23:56.447Z,13.90
2022-08-09T00:26:12.211Z,13.60
2022-08-09T00:28:40.371Z,13.70
2022-08-09T00:31:30.765Z,13.50
2022-08-09T00:33:54.695Z,13.50
2022-08-09T00:36:22.284Z,13.60
2022-08-09T00:38:54.109Z,13.70
2022-08-09T00:44:14.086Z,13.60
2022-08-09T00:44:25.628Z,13.60
2022-08-09T00:46:57.730Z,13.60
2022-08-09T00:49:31.389Z,13.60
2022-08-09T00:51:58.773Z,13.50
2022-08-09T00:54:35.083Z,13.40
2022-08-09T00:57:10.710Z,13.40
2022-08-09T00:59:41.540Z,13.50
2022-08-09T01:02:19.413Z,13.40
2022-08-09T01:04:53.114Z,13.60
2022-08-09T01:07:38.182Z,13.60
2022-08-09T01:10:31.954Z,13.60
2022-08-09T01:13:01.329Z,13.40
2022-08-09T01:15:30.853Z,13.50
2022-08-09T01:17:57.984Z,13.50
2022-08-09T01:20:44.948Z,13.20
2022-08-09T01:24:02.357Z,13.10
2022-08-09T01:26:53.079Z,13.20
2022-08-09T01:29:28.149Z,13.20
2022-08-09T01:32:31.325Z,13.30
2022-08-09T01:34:44.837Z,13.30
2022-08-09T01:37:16.446Z,13.30
2022-08-09T01:39:49.884Z,13.20
2022-08-09T01:42:17.042Z,13.30
2022-08-09T01:44:44.299Z,13.40
2022-08-09T01:47:13.597Z,13.10
2022-08-09T01:49:50.831Z,13.10
2022-08-09T01:52:21.873Z,13.10
2022-08-09T01:54:56.257Z,13.10
2022-08-09T01:57:40.087Z,13.20
2022-08-09T02:00:34.429Z,13.20
2022-08-09T02:02:58.889Z,13.00
2022-08-09T02:05:37.649Z,13.10
2022-08-09T02:08:38.630Z,13.10
2022-08-09T02:11:02.448Z,12.90
2022-08-09T02:13:40.209Z,12.90
2022-08-09T02:16:09.629Z,12.80
2022-08-09T02:18:38.030Z,12.80
2022-08-09T02:21:21.925Z,12.70
2022-08-09T02:24:00.003Z,12.70
2022-08-09T02:26:30.003Z,12.70
2022-08-09T02:28:59.581Z,12.80
2022-08-09T02:31:36.330Z,12.70
2022-08-09T02:34:13.856Z,12.60
2022-08-09T02:36:56.883Z,12.70
2022-08-09T02:39:39.673Z,12.60
2022-08-09T02:42:16.724Z,12.50
2022-08-09T02:44:48.634Z,12.40
2022-08-09T02:47:18.517Z,12.40
2022-08-09T02:50:01.694Z,12.30
2022-08-09T02:52:36.110Z,12.20
2022-08-09T02:55:03.404Z,12.30
2022-08-09T02:58:32.988Z,12.20
2022-08-09T03:00:34.880Z,12.20
2022-08-09T03:03:07.126Z,12.20
2022-08-09T03:05:35.210Z,12.20
2022-08-09T03:08:02.684Z,12.30
2022-08-09T03:10:29.565Z,12.30
2022-08-09T03:12:56.539Z,12.20
2022-08-09T03:15:24.569Z,12.10
2022-08-09T03:18:09.740Z,12.10
2022-08-09T03:20:38.284Z,12.00
2022-08-09T03:23:14.565Z,12.00
2022-08-09T03:25:58.724Z,12.00
2022-08-09T03:28:30.467Z,12.10
2022-08-09T03:30:57.865Z,11.90
2022-08-09T03:33:26.473Z,11.70
2022-08-09T03:36:16.390Z,11.70
2022-08-09T03:38:44.603Z,11.70
2022-08-09T03:41:16.384Z,11.80
2022-08-09T03:44:03.646Z,11.80
2022-08-09T03:46:32.387Z,11.80
2022-08-09T03:49:04.292Z,11.70
2022-08-09T03:51:55.296Z,11.70
2022-08-09T03:54:29.807Z,11.70
2022-08-09T03:56:59.597Z,11.70
2022-08-09T03:59:27.174Z,11.70
2022-08-09T04:01:54.358Z,11.80
2022-08-09T04:04:21.277Z,11.70
2022-08-09T04:06:51.352Z,11.70
2022-08-09T04:09:47.971Z,11.80
2022-08-09T04:12:11.932Z,11.70
2022-08-09T04:15:00.809Z,11.70
2022-08-09T04:17:29.734Z,11.60
2022-08-09T04:19:56.806Z,11.50
2022-08-09T04:22:23.555Z,11.50
2022-08-09T04:24:50.575Z,11.40
2022-08-09T04:27:17.560Z,11.30
2022-08-09T04:29:50.323Z,11.40
2022-08-09T04:32:23.804Z,11.50
2022-08-09T04:35:01.278Z,11.60
2022-08-09T04:37:45.617Z,11.60
2022-08-09T04:40:29.117Z,11.70
2022-08-09T04:43:00.411Z,11.70
2022-08-09T04:45:30.797Z,11.80
2022-08-09T04:48:04.096Z,11.70
2022-08-09T04:50:37.906Z,11.70
2022-08-09T04:53:13.215Z,11.70
2022-08-09T04:55:58.357Z,11.80
2022-08-09T04:58:31.671Z,11.90
2022-08-09T05:00:58.885Z,11.90
2022-08-09T05:03:42.946Z,11.90
2022-08-09T05:06:11.493Z,11.90
2022-08-09T05:08:38.484Z,12.00
2022-08-09T05:11:06.846Z,12.00
2022-08-09T05:13:38.954Z,12.10
2022-08-09T05:16:06.807Z,12.10
2022-08-09T05:18:50.899Z,12.20
2022-08-09T05:21:23.172Z,12.30
2022-08-09T05:23:58.018Z,12.30
2022-08-09T05:26:36.004Z,12.40
2022-08-09T05:29:17.705Z,12.40
2022-08-09T05:31:52.127Z,12.60
2022-08-09T05:34:29.797Z,12.70
2022-08-09T05:36:57.548Z,12.90
2022-08-09T05:39:28.421Z,13.00
2022-08-09T05:41:55.982Z,13.10
2022-08-09T05:44:29.083Z,13.20
2022-08-09T05:47:00.233Z,13.40
2022-08-09T05:50:32.073Z,13.40
2022-08-09T05:52:13.837Z,13.50
2022-08-09T05:54:42.033Z,13.50
2022-08-09T05:57:12.815Z,13.60
2022-08-09T05:59:41.795Z,13.80
2022-08-09T06:02:09.120Z,13.90
2022-08-09T06:04:36.881Z,14.00
2022-08-09T06:07:11.477Z,14.20
2022-08-09T06:09:54.356Z,14.40
2022-08-09T06:12:26.551Z,14.60
2022-08-09T06:14:53.248Z,14.80
2022-08-09T06:17:19.878Z,14.90
2022-08-09T06:19:46.524Z,15.10
2022-08-09T06:22:15.788Z,15.20
2022-08-09T06:24:43.731Z,15.40
2022-08-09T06:27:10.471Z,15.50
2022-08-09T06:29:48.046Z,15.60
2022-08-09T06:33:00.999Z,15.70
2022-08-09T06:35:11.079Z,15.90
2022-08-09T06:37:53.235Z,16.10
2022-08-09T06:40:24.905Z,16.20
2022-08-09T06:42:51.856Z,16.40
2022-08-09T06:46:04.414Z,16.60
2022-08-09T06:48:05.217Z,16.70
2022-08-09T06:50:32.075Z,16.80
2022-08-09T06:53:00.685Z,16.90
2022-08-09T06:55:31.757Z,17.00
2022-08-09T06:58:03.159Z,17.10
2022-08-09T07:00:51.563Z,17.20
2022-08-09T07:03:18.116Z,17.30
2022-08-09T07:05:53.602Z,17.40
2022-08-09T07:08:30.611Z,17.60
2022-08-09T07:10:57.348Z,17.60
2022-08-09T07:13:28.100Z,17.70
2022-08-09T07:16:41.750Z,17.80
2022-08-09T07:18:43.210Z,17.90
2022-08-09T07:21:10.326Z,18.00
2022-08-09T07:23:46.755Z,18.10
2022-08-09T07:26:23.560Z,18.20
2022-08-09T07:29:09.046Z,18.30
2022-08-09T07:31:38.617Z,18.30
2022-08-09T07:34:19.395Z,18.40
2022-08-09T07:36:50.872Z,18.50
2022-08-09T07:39:20.539Z,18.60
2022-08-09T07:42:06.556Z,18.70
2022-08-09T07:44:52.964Z,18.80
2022-08-09T07:47:20.944Z,18.90
2022-08-09T07:50:05.119Z,19.00
2022-08-09T07:52:35.846Z,19.10
2022-08-09T07:55:08.786Z,19.20
2022-08-09T07:57:36.629Z,19.30
2022-08-09T08:00:04.546Z,19.40
2022-08-09T08:02:43.003Z,19.40
2022-08-09T08:05:18.042Z,19.50
2022-08-09T08:08:44.668Z,19.60
2022-08-09T08:10:34.287Z,19.70
2022-08-09T08:13:01.425Z,19.80
2022-08-09T08:15:30.621Z,19.80
2022-08-09T08:18:02.263Z,19.90
2022-08-09T08:20:33.151Z,20.00
2022-08-09T08:23:06.546Z,20.00
2022-08-09T08:25:48.302Z,20.00
2022-08-09T08:28:18.137Z,20.00
2022-08-09T08:30:53.214Z,20.00
2022-08-09T08:33:24.218Z,20.00
2022-08-09T08:35:59.031Z,20.00
2022-08-09T08:38:27.959Z,20.00
2022-08-09T08:40:55.586Z,20.10
2022-08-09T08:43:23.714Z,20.20
2022-08-09T08:45:53.616Z,20.20
2022-08-09T08:48:31.826Z,20.30
2022-08-09T08:50:58.720Z,20.30
2022-08-09T08:53:32.074Z,20.50
2022-08-09T08:55:59.084Z,20.50
2022-08-09T08:58:29.481Z,20.40
2022-08-09T09:00:57.713Z,20.40
2022-08-09T09:03:33.287Z,20.40
2022-08-09T09:06:05.704Z,20.50
2022-08-09T09:08:40.382Z,20.60
2022-08-09T09:11:08.516Z,20.70
2022-08-09T09:13:55.158Z,20.60
2022-08-09T09:16:30.659Z,20.70
2022-08-09T09:19:36.554Z,20.70
2022-08-09T09:21:59.190Z,20.80
2022-08-09T09:24:28.970Z,20.90
2022-08-09T09:26:57.264Z,21.00
2022-08-09T09:30:05.423Z,21.10
2022-08-09T09:32:34.754Z,21.10
2022-08-09T09:35:02.187Z,21.10
2022-08-09T09:37:32.252Z,21.10
2022-08-09T09:39:59.848Z,21.20
2022-08-09T09:42:29.716Z,21.20
2022-08-09T09:44:58.217Z,21.10
2022-08-09T09:47:26.507Z,21.10
2022-08-09T09:50:14.297Z,21.20
2022-08-09T09:52:53.397Z,21.40
2022-08-09T09:55:32.143Z,21.50
2022-08-09T09:58:16.444Z,21.60
2022-08-09T10:00:52.742Z,21.60
2022-08-09T10:03:39.711Z,21.60
2022-08-09T10:06:06.674Z,21.70
2022-08-09T10:08:54.181Z,21.60
2022-08-09T10:12:00.703Z,21.70
2022-08-09T10:14:47.886Z,21.70
2022-08-09T10:17:40.340Z,21.80
2022-08-09T10:20:27.029Z,21.80
2022-08-09T10:23:12.359Z,21.90
2022-08-09T10:26:06.553Z,22.00
2022-08-09T10:28:28.698Z,22.00
2022-08-09T10:34:08.396Z,22.20
2022-08-09T10:36:28.996Z,22.20
2022-08-09T10:39:00.085Z,22.30
2022-08-09T10:41:28.068Z,22.40
2022-08-09T10:43:59.319Z,22.40
2022-08-09T10:46:54.573Z,22.40
2022-08-09T10:49:49.889Z,22.40
2022-08-09T10:52:26.487Z,22.50
2022-08-09T10:54:53.588Z,22.50
2022-08-09T10:57:20.365Z,22.60
2022-08-09T10:59:57.471Z,22.50
2022-08-09T11:03:46.690Z,22.60
2022-08-09T11:05:30.522Z,22.60
2022-08-09T11:08:17.886Z,22.70
2022-08-09T11:11:00.533Z,22.80
2022-08-09T11:13:51.295Z,22.80
2022-08-09T11:16:35.656Z,22.80
2022-08-09T11:19:09.957Z,22.70
2022-08-09T11:21:57.036Z,22.70
2022-08-09T11:24:51.566Z,22.70
2022-08-09T11:28:03.692Z,22.90
2022-08-09T11:30:32.290Z,22.90
2022-08-09T11:33:09.700Z,22.90
2022-08-09T11:35:49.105Z,23.00
2022-08-09T11:38:32.531Z,23.00
2022-08-09T11:41:13.463Z,23.10
2022-08-09T11:43:40.327Z,23.20
2022-08-09T11:46:06.975Z,23.20
2022-08-09T11:48:45.502Z,23.30
2022-08-09T11:52:54.072Z,23.30
2022-08-09T11:54:27.702Z,23.30
2022-08-09T11:57:15.735Z,23.40
2022-08-09T11:59:42.397Z,23.40
2022-08-09T12:02:34.158Z,23.50
2022-08-09T12:04:59.737Z,23.50
2022-08-09T12:07:41.150Z,23.60
2022-08-09T12:10:14.034Z,23.60
2022-08-09T12:12:57.283Z,23.60
2022-08-09T12:15:49.149Z,23.60
2022-08-09T12:18:16.975Z,23.70
2022-08-09T12:20:44.822Z,23.80
2022-08-09T12:23:13.229Z,23.80
2022-08-09T12:25:49.496Z,23.70
2022-08-09T12:29:12.074Z,23.60
2022-08-09T12:31:10.763Z,23.70
2022-08-09T12:34:01.182Z,23.70
2022-08-09T12:36:33.639Z,23.80
2022-08-09T12:39:00.923Z,24.00
2022-08-09T12:41:28.666Z,24.10
2022-08-09T12:44:05.910Z,24.20
2022-08-09T12:46:34.794Z,24.20
2022-08-09T12:49:03.609Z,24.30
2022-08-09T12:51:59.866Z,24.40
2022-08-09T12:54:17.768Z,24.40
2022-08-09T12:56:53.830Z,24.50
2022-08-09T12:59:24.876Z,24.60
2022-08-09T13:02:11.458Z,24.70
2022-08-09T13:04:41.774Z,24.70
2022-08-09T13:07:11.444Z,24.80
2022-08-09T13:09:40.776Z,24.80
2022-08-09T13:12:09.793Z,24.90
2022-08-09T13:14:42.653Z,25.00
2022-08-09T13:17:16.078Z,25.10
2022-08-09T13:20:10.457Z,25.10
2022-08-09T13:22:37.086Z,25.20
2022-08-09T13:25:14.158Z,25.30
2022-08-09T13:27:54.570Z,25.40
2022-08-09T13:31:53.549Z,25.50
2022-08-09T13:33:12.040Z,25.50
2022-08-09T13:36:24.162Z,25.60
2022-08-09T13:38:54.884Z,25.50
2022-08-09T13:41:59.115Z,25.50
2022-08-09T13:44:08.061Z,25.80
2022-08-09T13:47:17.762Z,26.00
2022-08-09T13:49:21.311Z,26.00
2022-08-09T13:52:01.400Z,26.20
2022-08-09T13:54:30.365Z,26.30
2022-08-09T13:56:57.261Z,26.30
2022-08-09T13:59:25.589Z,26.40
2022-08-09T14:01:56.185Z,26.30
2022-08-09T14:04:28.857Z,26.50
2022-08-09T14:06:56.495Z,26.50
2022-08-09T14:09:23.290Z,26.50
2022-08-09T14:11:50.847Z,26.70
2022-08-09T14:14:25.778Z,26.90
2022-08-09T14:16:54.397Z,27.00
2022-08-09T14:19:21.526Z,27.10
2022-08-09T14:21:49.392Z,27.00
2022-08-09T14:24:18.739Z,27.00
2022-08-09T14:26:51.839Z,27.00
2022-08-09T14:30:04.197Z,27.00
2022-08-09T14:32:06.932Z,27.10
2022-08-09T14:34:41.136Z,27.10
2022-08-09T14:37:08.270Z,27.30
2022-08-09T14:39:45.186Z,27.20
2022-08-09T14:42:31.384Z,27.00
2022-08-09T14:45:01.419Z,27.10
2022-08-09T14:47:45.397Z,27.00
2022-08-09T14:50:17.517Z,27.00
2022-08-09T14:52:47.758Z,26.90
2022-08-09T14:55:20.267Z,26.90
2022-08-09T14:57:48.996Z,27.00
2022-08-09T15:00:16.144Z,27.10
2022-08-09T15:02:42.770Z,27.30
2022-08-09T15:05:16.069Z,27.40
2022-08-09T15:07:43.645Z,27.60
2022-08-09T15:10:14.374Z,27.50
2022-08-09T15:12:44.899Z,27.60
2022-08-09T15:15:13.050Z,27.50
2022-08-09T15:17:42.556Z,27.40
2022-08-09T15:20:15.408Z,27.60
2022-08-09T15:24:01.179Z,27.40
2022-08-09T15:25:52.317Z,27.30
2022-08-09T15:28:28.105Z,27.60
2022-08-09T15:31:08.607Z,27.70
2022-08-09T15:34:17.785Z,27.60
2022-08-09T15:36:28.659Z,27.60
2022-08-09T15:38:56.501Z,27.70
2022-08-09T15:41:23.241Z,27.80
2022-08-09T15:43:58.570Z,27.80
2022-08-09T15:46:33.545Z,28.20
2022-08-09T15:49:21.882Z,28.30
2022-08-09T15:52:04.661Z,28.30
2022-08-09T15:54:43.091Z,28.70
2022-08-09T15:57:13.476Z,29.00
2022-08-09T15:59:40.163Z,29.20
2022-08-09T16:02:08.827Z,29.70
2022-08-09T16:04:40.153Z,30.30
2022-08-09T16:07:09.528Z,30.70
2022-08-09T16:10:02.484Z,31.20
2022-08-09T16:12:26.365Z,31.40
2022-08-09T16:14:57.839Z,31.80
2022-08-09T16:17:24.473Z,31.40
2022-08-09T16:20:03.986Z,31.70
2022-08-09T16:22:32.194Z,31.60
2022-08-09T16:25:01.487Z,32.00
2022-08-09T16:27:29.820Z,32.20
2022-08-09T16:30:00.787Z,32.30
2022-08-09T16:32:53.463Z,32.40
2022-08-09T16:35:56.150Z,32.20
2022-08-09T16:38:08.342Z,32.10
2022-08-09T16:40:40.971Z,32.20
2022-08-09T16:43:08.225Z,32.20
2022-08-09T16:45:35.036Z,32.00
2022-08-09T16:48:39.962Z,31.20
2022-08-09T16:50:59.627Z,30.90
2022-08-09T16:53:34.703Z,31.20
2022-08-09T16:56:03.869Z,31.30
2022-08-09T16:58:36.906Z,31.50
2022-08-09T17:01:04.358Z,31.50
2022-08-09T17:03:31.151Z,31.70
2022-08-09T17:06:08.231Z,31.90
2022-08-09T17:09:03.069Z,32.10
2022-08-09T17:11:40.758Z,32.50
2022-08-09T17:14:16.235Z,32.40
2022-08-09T17:16:59.404Z,32.00
2022-08-09T17:19:26.273Z,31.40
2022-08-09T17:21:55.436Z,31.70
2022-08-09T17:24:27.984Z,32.10
2022-08-09T17:26:58.201Z,32.10
2022-08-09T17:29:25.352Z,32.10
2022-08-09T17:32:00.169Z,32.30
2022-08-09T17:34:59.784Z,32.10
2022-08-09T17:37:19.464Z,32.10
2022-08-09T17:39:52.625Z,32.30
2022-08-09T17:42:41.104Z,32.50
2022-08-09T17:45:23.799Z,32.40
2022-08-09T17:47:55.821Z,32.30
2022-08-09T17:50:36.889Z,31.50
2022-08-09T17:53:19.511Z,31.30
2022-08-09T17:55:51.991Z,30.80
2022-08-09T17:58:24.338Z,30.70
2022-08-09T18:00:55.013Z,30.60
2022-08-09T18:03:24.384Z,30.20
2022-08-09T18:05:52.941Z,30.20
2022-08-09T18:08:22.189Z,29.90
2022-08-09T18:11:00.831Z,29.80
2022-08-09T18:13:43.037Z,29.60
2022-08-09T18:16:28.799Z,29.40
2022-08-09T18:18:57.007Z,29.00
2022-08-09T18:21:24.371Z,28.60
2022-08-09T18:24:12.467Z,28.40
2022-08-09T18:26:38.809Z,27.70
2022-08-09T18:30:40.619Z,26.90
2022-08-09T18:32:03.096Z,26.20
2022-08-09T18:34:31.590Z,25.40
2022-08-09T18:36:58.463Z,24.80
2022-08-09T18:39:25.712Z,24.30
2022-08-09T18:41:58.997Z,24.10
2022-08-09T18:44:26.075Z,23.80
2022-08-09T18:47:08.274Z,23.60
2022-08-09T18:49:43.354Z,23.50
2022-08-09T18:52:13.156Z,23.30
2022-08-09T18:54:49.803Z,23.10
2022-08-09T18:57:22.266Z,23.00
2022-08-09T18:59:55.663Z,22.80
2022-08-09T19:02:32.404Z,22.60
2022-08-09T19:05:19.585Z,22.40
2022-08-09T19:07:59.390Z,22.40
2022-08-09T19:10:39.094Z,22.20
2022-08-09T19:13:20.513Z,22.10
2022-08-09T19:15:56.645Z,22.00
2022-08-09T19:18:33.429Z,21.90
2022-08-09T19:21:08.833Z,21.80
2022-08-09T19:24:32.753Z,21.70
2022-08-09T19:26:29.200Z,21.60
2022-08-09T19:29:15.539Z,21.50
2022-08-09T19:31:46.529Z,21.40
2022-08-09T19:34:22.281Z,21.30
2022-08-09T19:36:54.051Z,21.20
2022-08-09T19:39:42.947Z,21.30
2022-08-09T19:42:08.268Z,21.20
2022-08-09T19:44:35.354Z,21.10
2022-08-09T19:47:02.814Z,21.10
2022-08-09T19:50:09.845Z,21.00
2022-08-09T19:52:18.568Z,21.00
2022-08-09T19:54:45.243Z,20.90
2022-08-09T19:57:12.222Z,20.90
2022-08-09T19:59:59.354Z,20.80
2022-08-09T20:04:07.437Z,20.80
2022-08-09T20:05:14.936Z,20.70
2022-08-09T20:07:59.500Z,20.70
2022-08-09T20:10:34.573Z,20.60
2022-08-09T20:13:05.189Z,20.50
2022-08-09T20:16:37.028Z,20.40
2022-08-09T20:18:19.573Z,20.40
2022-08-09T20:20:46.703Z,20.40
2022-08-09T20:23:13.349Z,20.30
2022-08-09T20:25:52.026Z,20.20
2022-08-09T20:28:27.867Z,20.30
2022-08-09T20:31:02.627Z,20.20
2022-08-09T20:33:39.215Z,20.20
2022-08-09T20:36:08.571Z,20.10
2022-08-09T20:39:02.892Z,20.00
2022-08-09T20:41:32.255Z,19.90
2022-08-09T20:44:04.074Z,19.90
2022-08-09T20:46:42.887Z,19.90
2022-08-09T20:49:15.970Z,19.90
2022-08-09T20:51:44.017Z,19.90
2022-08-09T20:54:16.820Z,19.80
2022-08-09T20:56:46.888Z,19.80
2022-08-09T20:59:17.257Z,19.80
2022-08-09T21:01:50.380Z,19.80
2022-08-09T21:05:54.870Z,19.80
2022-08-09T21:07:11.483Z,19.70
2022-08-09T21:09:55.262Z,19.70
2022-08-09T21:15:12.964Z,19.70
2022-08-09T21:18:22.214Z,19.70
2022-08-09T21:20:30.384Z,19.60
2022-08-09T21:22:57.953Z,19.60
2022-08-09T21:25:55.539Z,19.50
2022-08-09T21:28:34.470Z,19.50
2022-08-09T21:31:16.648Z,19.50
2022-08-09T21:33:50.779Z,19.50
2022-08-09T21:36:18.972Z,19.40
2022-08-09T21:38:45.692Z,19.30
2022-08-09T21:41:25.557Z,19.30
2022-08-09T21:44:10.408Z,19.30
2022-08-09T21:46:37.049Z,19.20
2022-08-09T21:49:03.874Z,19.20
2022-08-09T21:51:36.403Z,19.20
2022-08-09T21:54:10.591Z,19.20
2022-08-09T21:56:44.623Z,19.10
2022-08-09T21:59:25.383Z,19.20
2022-08-09T22:02:00.369Z,19.20
2022-08-09T22:04:55.074Z,19.10
2022-08-09T22:07:35.540Z,19.10
2022-08-09T22:10:02.065Z,19.00
2022-08-09T22:12:30.818Z,18.90
2022-08-09T22:14:58.711Z,18.90
2022-08-09T22:17:31.785Z,18.90
2022-08-09T22:20:00.075Z,18.80
2022-08-09T22:22:30.931Z,18.70
2022-08-09T22:26:07.089Z,18.60
2022-08-09T22:27:47.248Z,18.70
2022-08-09T22:30:15.344Z,18.60
2022-08-09T22:32:53.229Z,18.30
2022-08-09T22:36:02.592Z,18.10
2022-08-09T22:38:07.992Z,17.90
2022-08-09T22:40:35.090Z,17.90
2022-08-09T22:43:16.125Z,17.70
2022-08-09T22:48:10.776Z,17.60
2022-08-09T22:48:36.313Z,17.70
2022-08-09T22:51:10.441Z,17.70
2022-08-09T22:53:58.269Z,17.60
2022-08-09T22:56:33.460Z,17.70
2022-08-09T22:59:05.815Z,17.70
2022-08-09T23:01:50.993Z,17.70
2022-08-09T23:04:18.077Z,17.70
2022-08-09T23:07:03.381Z,17.70
2022-08-09T23:09:38.388Z,17.70
2022-08-09T23:12:05.133Z,17.60
2022-08-09T23:14:42.125Z,17.60
2022-08-09T23:17:09.953Z,17.50
2022-08-09T23:20:06.903Z,17.50
2022-08-09T23:22:23.315Z,17.50
2022-08-09T23:24:49.941Z,17.50
2022-08-09T23:27:16.579Z,17.60
2022-08-09T23:29:43.232Z,17.60
2022-08-09T23:32:09.898Z,17.60
2022-08-09T23:34:36.752Z,17.60
2022-08-09T23:37:04.690Z,17.70
2022-08-09T23:39:31.487Z,17.60
2022-08-09T23:41:58.368Z,17.60
2022-08-09T23:44:25.056Z,17.60
2022-08-09T23:46:57.190Z,17.50
2022-08-09T23:49:24.793Z,17.60
2022-08-09T23:51:52.017Z,17.60
2022-08-09T23:54:19.734Z,17.60
2022-08-09T23:56:54.192Z,17.60
2022-08-09T23:59:23.721Z,17.70
